createdAt,value
2017-12-20T00:00:15.936Z,20.13
2017-12-20T00:02:43.840Z,20.40
2017-12-20T00:05:12.832Z,19.83
2017-12-20T00:07:40.691Z,21.97
2017-12-20T00:10:08.560Z,18.47
2017-12-20T00:12:36.423Z,24.97
2017-12-20T00:15:04.296Z,19.47
2017-12-20T00:17:32.224Z,20.60
2017-12-20T00:20:00.169Z,24.90
2017-12-20T00:22:28.027Z,19.37
2017-12-20T00:24:56.032Z,18.93
2017-12-20T00:27:23.897Z,16.03
2017-12-20T00:29:51.780Z,18.77
2017-12-20T00:32:19.668Z,19.07
2017-12-20T00:34:48.476Z,18.27
2017-12-20T00:37:16.358Z,23.33
2017-12-20T00:39:44.266Z,19.67
2017-12-20T00:42:12.145Z,18.93
2017-12-20T00:44:39.996Z,20.37
2017-12-20T00:47:07.854Z,18.73
2017-12-20T00:49:35.767Z,19.67
2017-12-20T00:52:03.650Z,19.97
2017-12-20T00:54:31.508Z,19.63
2017-12-20T00:57:00.105Z,22.50
2017-12-20T00:59:28.108Z,20.17
2017-12-20T01:01:55.948Z,20.70
2017-12-20T01:04:23.819Z,22.53
2017-12-20T01:06:51.675Z,18.60
2017-12-20T01:09:19.536Z,19.03
2017-12-20T01:11:47.411Z,17.07
2017-12-20T01:14:15.265Z,18.07
2017-12-20T01:16:43.140Z,17.50
2017-12-20T01:19:11.007Z,16.40
2017-12-20T01:21:38.854Z,16.33
2017-12-20T01:24:06.728Z,15.80
2017-12-20T01:26:34.665Z,16.50
2017-12-20T01:29:02.564Z,18.00
2017-12-20T01:31:30.417Z,16.00
2017-12-20T01:33:58.348Z,18.20
2017-12-20T01:36:26.577Z,16.37
2017-12-20T01:38:54.460Z,17.00
2017-12-20T01:41:22.335Z,15.00
2017-12-20T01:43:50.188Z,16.70
2017-12-20T01:46:18.056Z,16.17
2017-12-20T01:48:45.936Z,18.20
2017-12-20T01:51:13.820Z,20.23
2017-12-20T01:53:41.672Z,14.27
2017-12-20T01:56:09.556Z,23.97
2017-12-20T01:58:37.397Z,16.27
2017-12-20T02:01:05.237Z,30.37
2017-12-20T02:03:33.144Z,14.67
2017-12-20T02:06:01.011Z,18.47
2017-12-20T02:08:28.900Z,14.50
2017-12-20T02:10:56.823Z,15.30
2017-12-20T02:13:24.686Z,17.20
2017-12-20T02:15:52.564Z,16.80
2017-12-20T02:18:20.545Z,15.97
2017-12-20T02:20:48.384Z,15.53
2017-12-20T02:23:16.224Z,16.23
2017-12-20T02:25:44.098Z,14.20
2017-12-20T02:28:11.984Z,14.97
2017-12-20T02:30:39.851Z,14.47
2017-12-20T02:33:13.749Z,16.27
2017-12-20T02:35:41.588Z,15.73
2017-12-20T02:38:09.460Z,11.60
2017-12-20T02:40:37.359Z,11.73
2017-12-20T02:43:05.216Z,11.60
2017-12-20T02:45:33.074Z,12.77
2017-12-20T02:48:00.981Z,12.73
2017-12-20T02:50:28.838Z,11.83
2017-12-20T02:52:56.717Z,11.23
2017-12-20T02:55:24.605Z,13.07
2017-12-20T02:57:52.463Z,12.23
2017-12-20T03:00:20.336Z,11.57
2017-12-20T03:02:48.240Z,11.33
2017-12-20T03:05:16.098Z,10.10
2017-12-20T03:07:43.940Z,11.27
2017-12-20T03:10:11.813Z,11.90
2017-12-20T03:12:39.683Z,11.40
2017-12-20T03:15:07.558Z,11.20
2017-12-20T03:17:35.435Z,11.60
2017-12-20T03:20:03.300Z,11.90
2017-12-20T03:22:31.171Z,12.50
2017-12-20T03:24:59.048Z,11.57
2017-12-20T03:27:26.895Z,10.90
2017-12-20T03:29:54.776Z,11.83
2017-12-20T03:32:22.669Z,11.83
2017-12-20T03:34:50.516Z,11.50
2017-12-20T03:37:18.352Z,12.73
2017-12-20T03:39:46.256Z,12.80
2017-12-20T03:42:14.109Z,13.13
2017-12-20T03:44:41.968Z,14.17
2017-12-20T03:47:09.838Z,14.87
2017-12-20T03:49:37.769Z,15.10
2017-12-20T03:52:05.616Z,15.80
2017-12-20T03:54:33.488Z,16.30
2017-12-20T03:57:01.359Z,16.70
2017-12-20T03:59:29.287Z,16.20
2017-12-20T04:01:57.175Z,17.30
2017-12-20T04:04:25.017Z,16.83
2017-12-20T04:06:52.884Z,16.90
2017-12-20T04:09:20.823Z,19.03
2017-12-20T04:11:48.676Z,16.90
2017-12-20T04:14:16.520Z,16.77
2017-12-20T04:16:44.416Z,15.47
2017-12-20T04:19:12.271Z,16.20
2017-12-20T04:21:40.133Z,16.53
2017-12-20T04:24:08.285Z,15.10
2017-12-20T04:26:36.133Z,14.40
2017-12-20T04:29:03.990Z,15.37
2017-12-20T04:31:31.921Z,15.00
2017-12-20T04:34:00.414Z,17.03
2017-12-20T04:36:28.277Z,16.47
2017-12-20T04:38:56.153Z,16.00
2017-12-20T04:41:24.051Z,15.73
2017-12-20T04:43:51.934Z,16.50
2017-12-20T04:46:19.815Z,14.83
2017-12-20T04:48:47.677Z,17.03
2017-12-20T04:51:15.514Z,16.10
2017-12-20T04:53:43.406Z,16.13
2017-12-20T04:56:11.523Z,15.43
2017-12-20T04:58:39.386Z,13.80
2017-12-20T05:01:07.293Z,13.20
2017-12-20T05:03:35.258Z,13.90
2017-12-20T05:06:03.108Z,12.70
2017-12-20T05:08:30.964Z,13.30
2017-12-20T05:10:58.821Z,13.43
2017-12-20T05:13:26.697Z,14.60
2017-12-20T05:15:54.649Z,12.73
2017-12-20T05:18:22.530Z,14.13
2017-12-20T05:20:50.502Z,13.60
2017-12-20T05:23:18.493Z,13.83
2017-12-20T05:25:46.360Z,14.50
2017-12-20T05:28:14.356Z,14.03
2017-12-20T05:30:42.240Z,13.80
2017-12-20T05:33:10.186Z,14.67
2017-12-20T05:35:38.050Z,13.87
2017-12-20T05:38:05.928Z,14.20
2017-12-20T05:40:33.913Z,14.43
2017-12-20T05:43:01.819Z,14.40
2017-12-20T05:45:29.842Z,15.10
2017-12-20T05:47:57.679Z,15.87
2017-12-20T05:50:25.516Z,16.37
2017-12-20T05:52:53.405Z,17.93
2017-12-20T05:55:21.240Z,19.63
2017-12-20T05:57:49.121Z,16.40
2017-12-20T06:00:17.100Z,17.67
2017-12-20T06:02:44.956Z,16.30
2017-12-20T06:05:12.825Z,16.50
2017-12-20T06:07:40.708Z,16.70
2017-12-20T06:10:08.612Z,15.30
2017-12-20T06:12:36.486Z,17.10
2017-12-20T06:15:04.358Z,16.90
2017-12-20T06:17:32.255Z,16.33
2017-12-20T06:20:00.117Z,15.80
2017-12-20T06:22:27.976Z,15.67
2017-12-20T06:24:55.856Z,15.63
2017-12-20T06:27:23.708Z,15.77
2017-12-20T06:29:51.641Z,16.40
2017-12-20T06:32:19.479Z,16.17
2017-12-20T06:34:47.534Z,14.90
2017-12-20T06:37:15.506Z,15.57
2017-12-20T06:39:43.426Z,16.43
2017-12-20T06:42:11.260Z,16.37
2017-12-20T06:44:39.148Z,16.83
2017-12-20T06:47:07.019Z,16.10
2017-12-20T06:49:34.893Z,16.93
2017-12-20T06:52:02.819Z,15.57
2017-12-20T06:54:30.684Z,16.70
2017-12-20T06:56:58.599Z,15.90
2017-12-20T06:59:26.835Z,15.43
2017-12-20T07:01:55.148Z,16.27
2017-12-20T07:04:23.034Z,16.40
2017-12-20T07:06:50.949Z,15.00
2017-12-20T07:09:18.820Z,16.97
2017-12-20T07:11:46.722Z,16.53
2017-12-20T07:14:14.616Z,16.83
2017-12-20T07:16:42.490Z,18.00
2017-12-20T07:19:10.353Z,16.57
2017-12-20T07:21:38.223Z,17.20
2017-12-20T07:24:06.194Z,17.40
2017-12-20T07:26:34.028Z,18.07
2017-12-20T07:29:01.960Z,14.93
2017-12-20T07:31:29.839Z,15.03
2017-12-20T07:33:57.976Z,16.00
2017-12-20T07:36:25.906Z,14.83
2017-12-20T07:38:53.751Z,16.23
2017-12-20T07:41:21.599Z,14.83
2017-12-20T07:43:49.486Z,14.10
2017-12-20T07:46:17.342Z,14.90
2017-12-20T07:48:45.175Z,15.40
2017-12-20T07:51:13.175Z,13.60
2017-12-20T07:53:41.022Z,15.10
2017-12-20T07:56:08.904Z,14.77
2017-12-20T07:58:36.809Z,12.67
2017-12-20T08:01:04.713Z,14.53
2017-12-20T08:03:32.611Z,15.50
2017-12-20T08:06:00.609Z,14.40
2017-12-20T08:08:28.486Z,13.43
2017-12-20T08:10:56.339Z,19.70
2017-12-20T08:13:24.217Z,16.17
2017-12-20T08:15:52.138Z,18.83
2017-12-20T08:18:19.972Z,15.30
2017-12-20T08:20:47.890Z,13.83
2017-12-20T08:23:15.751Z,16.90
2017-12-20T08:25:43.657Z,15.90
2017-12-20T08:28:11.581Z,13.47
2017-12-20T08:30:39.495Z,16.10
2017-12-20T08:33:07.356Z,12.73
2017-12-20T08:35:35.236Z,15.03
2017-12-20T08:38:03.117Z,15.37
2017-12-20T08:40:31.118Z,14.73
2017-12-20T08:42:59.024Z,13.90
2017-12-20T08:45:26.915Z,11.67
2017-12-20T08:47:54.861Z,11.70
2017-12-20T08:50:23.011Z,11.87
2017-12-20T08:52:50.882Z,13.43
2017-12-20T08:55:18.749Z,14.40
2017-12-20T08:57:46.681Z,13.00
2017-12-20T09:00:14.519Z,13.10
2017-12-20T09:02:42.371Z,21.77
2017-12-20T09:05:10.254Z,13.90
2017-12-20T09:07:38.393Z,13.10
2017-12-20T09:10:06.582Z,11.40
2017-12-20T09:12:34.532Z,10.67
2017-12-20T09:15:02.566Z,12.10
2017-12-20T09:17:30.429Z,10.90
2017-12-20T09:19:58.525Z,11.80
2017-12-20T09:22:26.473Z,10.20
2017-12-20T09:24:54.554Z,10.90
2017-12-20T09:27:22.457Z,11.27
2017-12-20T09:29:50.427Z,11.17
2017-12-20T09:32:18.350Z,11.13
2017-12-20T09:34:46.252Z,10.73
2017-12-20T09:37:14.105Z,11.47
2017-12-20T09:39:42.021Z,10.63
2017-12-20T09:42:09.946Z,10.90
2017-12-20T09:44:37.899Z,10.57
2017-12-20T09:47:05.873Z,11.33
2017-12-20T09:49:34.779Z,11.00
2017-12-20T09:52:02.638Z,11.97
2017-12-20T09:54:30.541Z,12.43
2017-12-20T09:56:58.431Z,12.57
2017-12-20T09:59:26.289Z,12.57
2017-12-20T10:01:54.169Z,13.67
2017-12-20T10:04:22.120Z,13.00
2017-12-20T10:06:50.001Z,13.37
2017-12-20T10:09:17.925Z,12.57
2017-12-20T10:11:46.950Z,13.77
2017-12-20T10:14:14.795Z,15.53
2017-12-20T10:16:42.645Z,14.60
2017-12-20T10:19:10.690Z,13.13
2017-12-20T10:21:38.573Z,14.23
2017-12-20T10:24:06.445Z,13.47
2017-12-20T10:26:34.466Z,15.70
2017-12-20T10:29:02.395Z,15.33
2017-12-20T10:31:30.391Z,15.20
2017-12-20T10:34:05.108Z,17.33
2017-12-20T10:36:32.986Z,15.33
2017-12-20T10:39:00.850Z,15.57
2017-12-20T10:41:28.787Z,17.20
2017-12-20T10:43:56.688Z,16.03
2017-12-20T10:46:24.521Z,13.63
2017-12-20T10:48:52.388Z,15.27
2017-12-20T10:51:20.268Z,16.67
2017-12-20T10:53:48.159Z,14.67
2017-12-20T10:56:16.130Z,13.73
2017-12-20T10:58:43.973Z,15.20
2017-12-20T11:01:11.861Z,15.53
2017-12-20T11:03:39.748Z,16.00
2017-12-20T11:06:07.636Z,15.00
2017-12-20T11:08:35.510Z,15.87
2017-12-20T11:11:03.607Z,15.50
2017-12-20T11:13:31.578Z,16.10
2017-12-20T11:15:59.488Z,17.43
2017-12-20T11:18:27.409Z,16.43
2017-12-20T11:20:56.077Z,17.83
2017-12-20T11:23:24.384Z,17.37
2017-12-20T11:25:52.843Z,16.63
2017-12-20T11:28:20.733Z,17.67
2017-12-20T11:30:48.602Z,16.60
2017-12-20T11:33:16.637Z,15.93
2017-12-20T11:35:44.514Z,16.73
2017-12-20T11:38:12.527Z,17.23
2017-12-20T11:40:40.428Z,17.40
2017-12-20T11:43:08.403Z,17.97
2017-12-20T11:45:36.463Z,17.73
2017-12-20T11:48:06.393Z,15.23
2017-12-20T11:50:34.316Z,18.50
2017-12-20T11:53:06.456Z,16.40
2017-12-20T11:55:34.448Z,17.43
2017-12-20T11:58:02.601Z,16.87
2017-12-20T12:00:30.510Z,17.20
2017-12-20T12:02:58.461Z,18.00
2017-12-20T12:05:26.389Z,17.97
2017-12-20T12:07:57.783Z,18.47
2017-12-20T12:10:25.673Z,18.87
2017-12-20T12:12:53.550Z,18.17
2017-12-20T12:15:22.662Z,19.73
2017-12-20T12:17:50.982Z,20.37
2017-12-20T12:20:18.815Z,20.40
2017-12-20T12:22:47.991Z,21.70
2017-12-20T12:25:15.850Z,19.93
2017-12-20T12:27:43.759Z,19.07
2017-12-20T12:30:11.897Z,20.47
2017-12-20T12:32:39.768Z,16.37
2017-12-20T12:35:07.948Z,17.93
2017-12-20T12:37:35.952Z,18.27
2017-12-20T12:40:03.848Z,17.90
2017-12-20T12:42:32.858Z,17.23
2017-12-20T12:45:00.800Z,17.90
2017-12-20T12:47:28.711Z,15.83
2017-12-20T12:49:56.665Z,15.40
2017-12-20T12:52:24.571Z,16.47
2017-12-20T12:54:52.434Z,20.03
2017-12-20T12:57:20.307Z,16.30
2017-12-20T12:59:48.208Z,15.60
2017-12-20T13:02:16.090Z,17.07
2017-12-20T13:04:44.054Z,16.43
2017-12-20T13:07:12.410Z,15.47
2017-12-20T13:09:40.355Z,17.47
2017-12-20T13:12:08.289Z,17.43
2017-12-20T13:14:37.134Z,17.67
2017-12-20T13:17:05.024Z,18.63
2017-12-20T13:19:32.911Z,20.37
2017-12-20T13:22:01.183Z,19.50
2017-12-20T13:24:29.100Z,19.13
2017-12-20T13:26:56.978Z,19.30
2017-12-20T13:29:24.898Z,19.40
2017-12-20T13:31:52.776Z,19.33
2017-12-20T13:34:20.623Z,19.63
2017-12-20T13:36:48.517Z,21.00
2017-12-20T13:39:16.478Z,19.83
2017-12-20T13:41:44.386Z,20.10
2017-12-20T13:44:13.047Z,19.67
2017-12-20T13:46:41.169Z,17.40
2017-12-20T13:49:09.111Z,16.57
2017-12-20T13:51:36.996Z,14.83
2017-12-20T13:54:04.973Z,14.80
2017-12-20T13:56:32.861Z,14.60
2017-12-20T13:59:01.434Z,15.83
2017-12-20T14:01:30.173Z,15.60
2017-12-20T14:03:58.044Z,16.67
2017-12-20T14:06:25.921Z,14.27
2017-12-20T14:08:53.819Z,15.80
2017-12-20T14:11:21.739Z,17.73
2017-12-20T14:13:49.749Z,16.30
2017-12-20T14:16:19.830Z,14.40
2017-12-20T14:18:47.718Z,13.63
2017-12-20T14:21:15.636Z,13.90
2017-12-20T14:23:43.515Z,12.73
2017-12-20T14:26:11.359Z,14.97
2017-12-20T14:28:39.245Z,12.33
2017-12-20T14:31:07.094Z,13.40
2017-12-20T14:33:34.988Z,12.97
2017-12-20T14:36:02.929Z,11.57
2017-12-20T14:38:30.904Z,16.30
2017-12-20T14:40:58.771Z,15.13
2017-12-20T14:43:26.677Z,14.20
2017-12-20T14:45:54.601Z,13.73
2017-12-20T14:48:22.467Z,14.10
2017-12-20T14:50:50.378Z,14.67
2017-12-20T14:53:18.562Z,19.70
2017-12-20T14:55:46.439Z,18.70
2017-12-20T14:58:14.420Z,16.93
2017-12-20T15:00:42.267Z,17.10
2017-12-20T15:03:10.123Z,15.27
2017-12-20T15:05:38.045Z,14.87
2017-12-20T15:08:05.898Z,16.43
2017-12-20T15:10:33.765Z,19.33
2017-12-20T15:13:02.495Z,13.50
2017-12-20T15:15:30.352Z,18.30
2017-12-20T15:17:58.211Z,14.10
2017-12-20T15:20:26.133Z,14.60
2017-12-20T15:22:55.000Z,14.13
2017-12-20T15:25:22.876Z,17.23
2017-12-20T15:27:50.774Z,15.37
2017-12-20T15:30:18.678Z,16.20
2017-12-20T15:32:46.541Z,15.23
2017-12-20T15:35:14.438Z,17.43
2017-12-20T15:37:42.330Z,16.50
2017-12-20T15:40:10.205Z,16.87
2017-12-20T15:42:38.086Z,16.83
2017-12-20T15:45:05.952Z,20.60
2017-12-20T15:47:33.886Z,20.60
2017-12-20T15:50:01.777Z,17.80
2017-12-20T15:52:29.643Z,19.00
2017-12-20T15:54:57.490Z,18.60
2017-12-20T15:57:25.498Z,17.90
2017-12-20T15:59:53.427Z,19.30
2017-12-20T16:02:21.284Z,20.20
2017-12-20T16:04:49.281Z,20.23
2017-12-20T16:07:17.310Z,20.07
2017-12-20T16:09:45.177Z,19.40
2017-12-20T16:12:13.076Z,20.90
2017-12-20T16:14:40.943Z,29.30
2017-12-20T16:17:08.802Z,24.77
2017-12-20T16:19:36.763Z,24.53
2017-12-20T16:22:04.661Z,23.10
2017-12-20T16:24:32.572Z,23.47
2017-12-20T16:27:00.483Z,21.97
2017-12-20T16:29:29.215Z,20.77
2017-12-20T16:31:57.145Z,20.87
2017-12-20T16:34:25.061Z,22.53
2017-12-20T16:36:52.929Z,20.17
2017-12-20T16:39:20.963Z,23.10
2017-12-20T16:41:48.853Z,21.47
2017-12-20T16:44:16.875Z,20.67
2017-12-20T16:46:44.736Z,21.77
2017-12-20T16:49:12.671Z,20.30
2017-12-20T16:51:40.528Z,20.47
2017-12-20T16:54:08.389Z,20.33
2017-12-20T16:56:36.287Z,20.67
2017-12-20T16:59:04.474Z,20.67
2017-12-20T17:01:32.347Z,21.90
2017-12-20T17:04:01.075Z,21.17
2017-12-20T17:06:28.989Z,22.10
2017-12-20T17:08:56.956Z,23.10
2017-12-20T17:11:24.901Z,21.97
2017-12-20T17:13:52.852Z,21.70
2017-12-20T17:16:20.708Z,23.20
2017-12-20T17:18:48.757Z,22.27
2017-12-20T17:21:32.055Z,23.60
2017-12-20T17:23:59.931Z,24.43
2017-12-20T17:26:27.793Z,22.60
2017-12-20T17:28:55.665Z,26.70
2017-12-20T17:31:23.730Z,22.70
2017-12-20T17:33:51.627Z,27.23
2017-12-20T17:36:19.655Z,23.70
2017-12-20T17:38:47.529Z,23.30
2017-12-20T17:41:15.380Z,24.03
2017-12-20T17:43:43.262Z,21.90
2017-12-20T17:46:11.222Z,25.97
2017-12-20T17:48:39.144Z,24.23
2017-12-20T17:51:07.050Z,23.30
2017-12-20T17:53:49.944Z,25.10
2017-12-20T17:56:17.807Z,24.10
2017-12-20T17:58:45.675Z,26.40
2017-12-20T18:01:14.229Z,22.93
2017-12-20T18:03:42.193Z,23.80
2017-12-20T18:06:10.049Z,22.67
2017-12-20T18:08:37.955Z,23.07
2017-12-20T18:11:05.917Z,27.97
2017-12-20T18:13:33.786Z,29.20
2017-12-20T18:16:01.678Z,31.10
2017-12-20T18:18:29.651Z,36.13
2017-12-20T18:20:57.560Z,26.50
2017-12-20T18:23:25.469Z,32.00
2017-12-20T18:25:53.352Z,32.13
2017-12-20T18:28:21.332Z,27.93
2017-12-20T18:30:49.251Z,29.40
2017-12-20T18:33:17.757Z,30.00
2017-12-20T18:35:45.779Z,27.50
2017-12-20T18:38:13.663Z,28.57
2017-12-20T18:40:41.554Z,35.73
2017-12-20T18:43:09.440Z,31.40
2017-12-20T18:45:37.334Z,28.60
2017-12-20T18:48:05.310Z,29.20
2017-12-20T18:50:33.285Z,39.17
2017-12-20T18:53:01.245Z,35.40
2017-12-20T18:55:29.129Z,34.37
2017-12-20T18:57:57.013Z,33.87
2017-12-20T19:00:24.944Z,29.90
2017-12-20T19:02:52.839Z,30.80
2017-12-20T19:05:20.744Z,29.43
2017-12-20T19:07:48.644Z,33.17
2017-12-20T19:10:16.507Z,32.50
2017-12-20T19:12:44.395Z,28.50
2017-12-20T19:15:12.289Z,28.07
2017-12-20T19:17:40.311Z,31.17
2017-12-20T19:20:08.255Z,30.20
2017-12-20T19:22:36.195Z,28.57
2017-12-20T19:25:04.192Z,28.70
2017-12-20T19:27:32.084Z,27.07
2017-12-20T19:30:00.046Z,29.23
2017-12-20T19:32:31.224Z,28.50
2017-12-20T19:34:59.159Z,28.37
2017-12-20T19:37:27.081Z,31.00
2017-12-20T19:39:54.989Z,28.87
2017-12-20T19:42:22.896Z,28.60
2017-12-20T19:44:50.838Z,30.57
2017-12-20T19:47:18.726Z,29.97
2017-12-20T19:49:46.611Z,29.47
2017-12-20T19:52:14.520Z,28.40
2017-12-20T19:54:45.029Z,28.20
2017-12-20T19:57:12.921Z,29.50
2017-12-20T19:59:40.816Z,28.23
2017-12-20T20:02:08.708Z,28.17
2017-12-20T20:04:36.609Z,27.70
2017-12-20T20:07:04.523Z,28.33
2017-12-20T20:09:32.390Z,29.73
2017-12-20T20:12:01.142Z,28.87
2017-12-20T20:14:29.037Z,29.00
2017-12-20T20:16:56.921Z,30.00
2017-12-20T20:19:24.894Z,27.27
2017-12-20T20:21:52.821Z,27.83
2017-12-20T20:24:20.776Z,27.53
2017-12-20T20:26:48.648Z,27.70
2017-12-20T20:29:16.588Z,29.90
2017-12-20T20:31:44.473Z,29.90
2017-12-20T20:34:12.336Z,30.43
2017-12-20T20:36:40.299Z,29.60
2017-12-20T20:39:08.172Z,31.80
2017-12-20T20:41:36.033Z,32.17
2017-12-20T20:44:03.993Z,31.77
2017-12-20T20:46:31.860Z,34.57
2017-12-20T20:48:59.741Z,30.97
2017-12-20T20:51:27.688Z,33.43
2017-12-20T20:53:55.592Z,33.23
2017-12-20T20:56:23.493Z,32.07
2017-12-20T20:58:51.564Z,35.87
2017-12-20T21:01:19.529Z,32.30
2017-12-20T21:03:48.439Z,35.90
2017-12-20T21:06:16.482Z,33.90
2017-12-20T21:08:44.509Z,32.57
2017-12-20T21:11:12.496Z,33.77
2017-12-20T21:13:40.380Z,31.77
2017-12-20T21:16:08.274Z,33.13
2017-12-20T21:18:36.175Z,33.50
2017-12-20T21:21:04.065Z,33.90
2017-12-20T21:23:31.972Z,35.90
2017-12-20T21:25:59.851Z,35.23
2017-12-20T21:28:27.885Z,32.27
2017-12-20T21:30:55.828Z,32.20
2017-12-20T21:33:23.798Z,32.73
2017-12-20T21:35:51.838Z,33.70
2017-12-20T21:38:19.962Z,33.90
2017-12-20T21:40:47.891Z,33.63
2017-12-20T21:43:15.818Z,34.80
2017-12-20T21:45:43.679Z,33.30
2017-12-20T21:48:11.593Z,35.27
2017-12-20T21:50:39.580Z,35.20
2017-12-20T21:53:07.519Z,38.00
2017-12-20T21:55:35.438Z,36.00
2017-12-20T21:58:03.397Z,36.13
2017-12-20T22:00:31.331Z,39.30
2017-12-20T22:02:59.258Z,35.40
2017-12-20T22:05:27.152Z,37.50
2017-12-20T22:07:55.144Z,35.27
2017-12-20T22:10:23.245Z,35.37
2017-12-20T22:12:51.161Z,36.00
2017-12-20T22:15:19.210Z,37.90
2017-12-20T22:17:47.114Z,37.10
2017-12-20T22:20:15.016Z,35.90
2017-12-20T22:22:42.892Z,36.17
2017-12-20T22:25:10.810Z,34.60
2017-12-20T22:27:38.713Z,35.90
2017-12-20T22:30:06.647Z,33.50
2017-12-20T22:32:34.578Z,36.97
2017-12-20T22:35:02.502Z,36.00
2017-12-20T22:37:30.392Z,37.27
2017-12-20T22:39:58.263Z,32.57
2017-12-20T22:42:26.272Z,34.80
2017-12-20T22:44:54.136Z,34.53
2017-12-20T22:47:23.491Z,34.20
2017-12-20T22:49:51.458Z,31.97
2017-12-20T22:52:19.481Z,35.10
2017-12-20T22:54:47.369Z,33.57
2017-12-20T22:57:15.278Z,33.70
2017-12-20T22:59:43.207Z,31.93
2017-12-20T23:02:11.129Z,34.37
2017-12-20T23:04:39.188Z,32.60
2017-12-20T23:07:07.077Z,33.13
2017-12-20T23:09:34.965Z,32.70
2017-12-20T23:12:02.979Z,32.50
2017-12-20T23:14:30.834Z,30.80
2017-12-20T23:16:58.716Z,31.77
2017-12-20T23:19:26.731Z,31.33
2017-12-20T23:21:54.636Z,32.60
2017-12-20T23:24:22.520Z,30.40
2017-12-20T23:26:50.468Z,31.80
2017-12-20T23:29:18.344Z,29.50
2017-12-20T23:31:46.270Z,29.93
2017-12-20T23:34:14.176Z,29.20
2017-12-20T23:36:42.065Z,29.07
2017-12-20T23:39:10.013Z,28.50
2017-12-20T23:41:37.928Z,30.10
2017-12-20T23:44:05.805Z,29.33
2017-12-20T23:46:33.821Z,29.27
2017-12-20T23:49:01.765Z,28.53
2017-12-20T23:51:29.649Z,28.83
2017-12-20T23:53:57.627Z,31.27
2017-12-20T23:56:25.567Z,27.30
2017-12-20T23:58:53.605Z,25.60
